createdAt,value
2017-12-21T00:18:02.120Z,15.73
2017-12-21T01:07:20.870Z,9.65
2017-12-21T01:09:48.909Z,8.68
2017-12-21T01:12:16.977Z,9.82
2017-12-21T01:14:45.018Z,10.07
2017-12-21T01:17:13.079Z,8.52
2017-12-21T01:19:41.100Z,8.65
2017-12-21T01:39:22.547Z,9.98
2017-12-21T03:03:19.761Z,12.40
2017-12-21T03:05:48.204Z,12.05
2017-12-21T03:08:18.117Z,13.82
2017-12-21T03:10:46.561Z,14.00
2017-12-21T03:13:14.628Z,12.18
2017-12-21T03:15:43.804Z,9.57
2017-12-21T03:18:13.216Z,11.20
2017-12-21T03:20:41.188Z,8.88
2017-12-21T03:23:09.681Z,10.25
2017-12-21T03:25:37.745Z,10.00
2017-12-21T04:17:34.305Z,19.87
2017-12-21T04:29:55.233Z,15.07
2017-12-21T04:32:24.648Z,22.42
2017-12-21T04:34:52.624Z,16.30
2017-12-21T04:37:21.817Z,18.98
2017-12-21T04:39:51.248Z,20.45
2017-12-21T04:42:20.568Z,14.93
2017-12-21T04:44:48.529Z,11.35
2017-12-21T04:47:16.989Z,10.95
2017-12-21T04:49:46.460Z,12.70
2017-12-21T04:52:15.800Z,11.05
2017-12-21T04:54:43.760Z,18.10
2017-12-21T04:57:13.165Z,12.80
2017-12-21T04:59:42.094Z,17.35
2017-12-21T05:02:10.145Z,15.30
2017-12-21T05:04:39.572Z,13.82
2017-12-21T05:07:08.300Z,14.30
2017-12-21T05:09:36.749Z,16.95
2017-12-21T06:48:27.709Z,19.73
2017-12-21T06:50:56.162Z,16.90
2017-12-21T06:53:25.607Z,17.70
2017-12-21T06:55:53.671Z,19.55
2017-12-21T06:58:22.125Z,16.67
2017-12-21T07:00:50.642Z,15.95
2017-12-21T07:03:18.805Z,16.73
2017-12-21T07:05:47.293Z,17.52
2017-12-21T07:08:15.361Z,16.25
2017-12-21T07:10:44.974Z,14.98
2017-12-21T07:13:13.040Z,15.07
2017-12-21T07:15:41.493Z,20.65
2017-12-21T07:18:09.601Z,20.27
2017-12-21T07:20:38.501Z,15.65
2017-12-21T07:23:06.706Z,19.25
2017-12-21T07:25:36.285Z,14.13
2017-12-21T07:28:04.442Z,15.55
2017-12-21T07:30:32.612Z,19.30
2017-12-21T07:33:00.694Z,15.90
2017-12-21T07:35:29.992Z,27.40
2017-12-21T07:37:59.516Z,31.75
2017-12-21T07:40:27.484Z,20.12
2017-12-21T07:42:55.641Z,19.50
2017-12-21T07:45:24.221Z,20.67
2017-12-21T07:47:52.281Z,20.05
2017-12-21T07:50:21.696Z,16.62
2017-12-21T07:52:51.116Z,18.30
2017-12-21T07:55:19.175Z,23.10
2017-12-21T07:57:49.509Z,20.75
2017-12-21T08:00:19.033Z,18.23
2017-12-21T08:02:48.230Z,19.52
2017-12-21T08:05:16.393Z,18.92
2017-12-21T08:07:44.568Z,19.35
2017-12-21T08:10:12.635Z,19.30
2017-12-21T08:12:40.798Z,21.00
2017-12-21T08:15:09.286Z,16.25
2017-12-21T08:17:37.369Z,18.90
2017-12-21T08:20:05.425Z,21.83
2017-12-21T08:22:34.868Z,17.48
2017-12-21T08:25:03.612Z,18.62
2017-12-21T08:27:31.681Z,20.98
2017-12-21T08:30:00.577Z,20.02
2017-12-21T08:32:28.649Z,23.33
2017-12-21T08:34:57.865Z,24.48
2017-12-21T08:37:26.329Z,20.40
2017-12-21T08:39:55.849Z,19.58
2017-12-21T08:42:24.606Z,19.40
2017-12-21T08:44:52.697Z,18.92
2017-12-21T08:47:21.995Z,18.80
2017-12-21T08:49:50.164Z,22.02
2017-12-21T08:52:19.460Z,18.70
2017-12-21T08:54:47.549Z,20.30
2017-12-21T08:57:16.961Z,17.20
2017-12-21T08:59:45.015Z,17.92
2017-12-21T09:02:13.190Z,19.52
2017-12-21T09:04:42.596Z,18.00
2017-12-21T09:07:10.665Z,20.40
2017-12-21T09:09:39.229Z,17.87
2017-12-21T09:12:07.321Z,19.50
2017-12-21T09:14:35.392Z,20.65
2017-12-21T09:17:03.461Z,23.02
2017-12-21T09:19:32.886Z,21.00
2017-12-21T09:22:02.013Z,19.48
2017-12-21T09:24:30.065Z,20.55
2017-12-21T09:26:59.341Z,19.67
2017-12-21T09:29:27.508Z,18.77
2017-12-21T09:31:55.689Z,20.52
2017-12-21T09:34:23.757Z,17.02
2017-12-21T09:36:53.175Z,20.50
2017-12-21T09:39:21.165Z,24.08
2017-12-21T09:41:50.352Z,21.17
2017-12-21T09:44:18.505Z,22.85
2017-12-21T09:46:46.569Z,22.23
2017-12-21T09:49:15.991Z,22.87
2017-12-21T09:51:45.101Z,25.23
2017-12-21T09:54:14.601Z,23.55
2017-12-21T09:56:43.722Z,20.48
2017-12-21T09:59:11.850Z,18.20
2017-12-21T10:01:39.900Z,23.65
2017-12-21T10:04:07.989Z,20.65
2017-12-21T10:06:36.168Z,17.30
2017-12-21T10:09:05.604Z,19.90
2017-12-21T10:11:34.985Z,18.12
2017-12-21T10:14:02.953Z,21.55
2017-12-21T10:16:31.113Z,22.37
2017-12-21T10:18:59.193Z,21.20
2017-12-21T10:21:27.360Z,18.25
2017-12-21T10:23:56.969Z,19.23
2017-12-21T10:26:26.492Z,20.88
2017-12-21T10:28:54.553Z,16.52
2017-12-21T10:31:22.721Z,15.82
2017-12-21T10:33:50.899Z,18.92
2017-12-21T10:36:20.473Z,16.10
2017-12-21T10:38:48.583Z,17.35
2017-12-21T10:41:16.646Z,23.50
2017-12-21T10:43:44.825Z,17.30
2017-12-21T10:46:12.897Z,16.30
2017-12-21T10:48:41.785Z,19.83
2017-12-21T10:51:11.208Z,18.83
2017-12-21T10:53:40.609Z,16.42
2017-12-21T10:56:09.928Z,19.37
2017-12-21T10:58:39.275Z,16.62
2017-12-21T11:01:08.609Z,16.75
2017-12-21T11:03:36.631Z,17.48
2017-12-21T11:06:04.746Z,18.60
2017-12-21T11:08:32.826Z,19.42
2017-12-21T11:11:00.989Z,18.52
2017-12-21T11:13:29.057Z,16.17
2017-12-21T11:15:58.265Z,15.60
2017-12-21T11:18:27.780Z,17.62
2017-12-21T11:20:57.179Z,17.30
2017-12-21T11:23:26.497Z,15.02
2017-12-21T11:25:54.862Z,15.23
2017-12-21T11:28:23.136Z,18.35
2017-12-21T11:30:51.601Z,14.75
2017-12-21T11:33:19.657Z,14.20
2017-12-21T11:35:47.750Z,16.45
2017-12-21T11:38:15.937Z,14.93
2017-12-21T11:40:43.992Z,13.35
2017-12-21T11:43:13.625Z,14.45
2017-12-21T11:45:42.445Z,14.25
2017-12-21T11:48:11.905Z,13.25
2017-12-21T11:50:41.009Z,15.45
2017-12-21T11:53:10.590Z,12.18
2017-12-21T11:55:39.797Z,13.25
2017-12-21T11:58:07.869Z,13.50
2017-12-21T12:00:36.040Z,11.52
2017-12-21T12:03:04.118Z,9.20
2017-12-21T12:05:32.165Z,10.43
2017-12-21T12:08:00.233Z,11.18
2017-12-21T12:10:28.298Z,11.35
2017-12-21T12:12:57.745Z,10.93
2017-12-21T12:15:26.529Z,14.52
2017-12-21T12:17:55.942Z,13.35
2017-12-21T12:20:23.925Z,12.95
2017-12-21T12:22:53.172Z,11.35
2017-12-21T12:25:22.600Z,11.25
2017-12-21T12:27:50.671Z,13.75
2017-12-21T12:30:19.865Z,15.48
2017-12-21T12:32:48.337Z,18.08
2017-12-21T12:35:17.241Z,12.48
2017-12-21T12:37:46.305Z,18.45
2017-12-21T12:40:14.818Z,14.32
2017-12-21T12:42:43.641Z,13.35
2017-12-21T12:45:11.708Z,13.25
2017-12-21T12:47:41.277Z,15.18
2017-12-21T12:50:09.745Z,13.82
2017-12-21T12:52:39.148Z,11.32
2017-12-21T12:55:08.368Z,13.68
2017-12-21T12:57:36.445Z,15.15
2017-12-21T13:00:05.856Z,10.70
2017-12-21T13:02:33.925Z,10.90
2017-12-21T13:05:01.990Z,11.77
2017-12-21T13:07:30.168Z,10.85
2017-12-21T13:09:58.995Z,13.80
2017-12-21T13:12:28.269Z,17.85
2017-12-21T13:14:56.289Z,11.90
2017-12-21T13:17:25.702Z,12.40
2017-12-21T13:19:54.453Z,15.77
2017-12-21T13:22:23.936Z,13.62
2017-12-21T13:24:53.052Z,18.17
2017-12-21T13:27:21.189Z,13.18
2017-12-21T13:29:49.257Z,12.80
2017-12-21T13:32:17.334Z,17.33
2017-12-21T13:34:46.852Z,16.17
2017-12-21T13:37:14.909Z,13.48
2017-12-21T13:39:43.084Z,11.95
2017-12-21T13:42:12.387Z,12.90
2017-12-21T13:44:40.557Z,13.77
2017-12-21T13:47:08.633Z,13.90
2017-12-21T13:49:37.829Z,12.88
2017-12-21T13:52:06.001Z,17.25
2017-12-21T13:54:35.572Z,12.35
2017-12-21T13:57:04.027Z,10.50
2017-12-21T13:59:34.276Z,12.18
2017-12-21T14:02:03.672Z,12.23
2017-12-21T14:04:32.805Z,10.77
2017-12-21T14:07:00.881Z,10.13
2017-12-21T14:09:29.778Z,13.55
2017-12-21T14:11:57.846Z,17.20
2017-12-21T14:14:27.071Z,13.27
2017-12-21T14:16:55.547Z,13.75
2017-12-21T14:19:24.009Z,10.95
2017-12-21T14:21:52.057Z,9.77
2017-12-21T14:24:20.565Z,9.20
2017-12-21T14:26:48.637Z,11.93
2017-12-21T14:29:16.809Z,9.43
2017-12-21T14:31:46.212Z,13.55
2017-12-21T14:34:14.945Z,11.48
2017-12-21T14:36:43.070Z,11.38
2017-12-21T14:39:12.489Z,10.02
2017-12-21T14:41:41.828Z,9.80
2017-12-21T14:44:10.548Z,8.68
2017-12-21T14:46:40.113Z,12.18
2017-12-21T14:49:08.245Z,11.20
2017-12-21T14:51:36.332Z,8.23
2017-12-21T14:54:05.832Z,9.82
2017-12-21T14:56:33.892Z,11.45
2017-12-21T14:59:01.969Z,9.55
2017-12-21T15:01:31.488Z,12.60
2017-12-21T15:04:00.889Z,11.55
2017-12-21T15:06:30.212Z,11.98
2017-12-21T15:08:58.653Z,12.02
2017-12-21T15:11:26.721Z,10.60
2017-12-21T15:13:54.769Z,10.48
2017-12-21T15:16:24.188Z,15.30
2017-12-21T15:18:53.296Z,12.30
2017-12-21T15:21:22.708Z,11.30
2017-12-21T15:23:51.493Z,10.63
2017-12-21T15:26:20.385Z,13.75
2017-12-21T15:28:49.590Z,17.30
2017-12-21T15:31:18.045Z,9.70
2017-12-21T15:33:46.134Z,14.20
2017-12-21T15:36:14.202Z,16.85
2017-12-21T15:38:43.510Z,16.55
2017-12-21T15:41:11.681Z,10.13
2017-12-21T15:43:40.877Z,9.25
2017-12-21T15:46:08.921Z,10.32
2017-12-21T15:48:37.393Z,12.23
2017-12-21T15:51:06.222Z,18.17
2017-12-21T15:53:34.273Z,19.12
2017-12-21T15:56:02.357Z,15.07
2017-12-21T15:58:30.413Z,19.12
2017-12-21T16:00:58.473Z,16.55
2017-12-21T16:03:27.306Z,13.77
2017-12-21T16:05:56.720Z,15.50
2017-12-21T16:20:45.069Z,13.45
2017-12-21T16:23:14.289Z,20.45
2017-12-21T16:25:42.340Z,17.05
2017-12-21T16:28:11.773Z,16.10
2017-12-21T16:30:39.737Z,17.90
2017-12-21T16:33:08.197Z,17.52
2017-12-21T16:35:36.272Z,17.08
2017-12-21T16:38:04.329Z,19.90
2017-12-21T16:40:32.412Z,18.00
2017-12-21T16:43:00.469Z,17.40
2017-12-21T16:45:28.527Z,18.40
2017-12-21T16:47:56.593Z,14.55
2017-12-21T16:50:24.653Z,13.90
2017-12-21T16:52:53.502Z,19.45
2017-12-21T16:55:21.569Z,14.95
2017-12-21T16:57:51.149Z,16.67
2017-12-21T17:00:19.233Z,17.70
2017-12-21T17:02:47.691Z,14.55
2017-12-21T17:05:15.745Z,16.60
2017-12-21T17:07:44.628Z,15.65
2017-12-21T17:10:13.045Z,16.20
2017-12-21T17:12:42.258Z,14.82
2017-12-21T17:15:10.321Z,17.20
2017-12-21T17:17:38.772Z,21.25
2017-12-21T17:20:08.189Z,28.12
2017-12-21T17:22:37.676Z,22.95
2017-12-21T17:25:05.789Z,43.22
2017-12-21T17:27:34.224Z,23.55
2017-12-21T17:30:03.813Z,22.50
2017-12-21T17:32:33.225Z,17.55
2017-12-21T17:35:01.958Z,14.48
2017-12-21T17:37:30.413Z,18.73
2017-12-21T17:39:58.469Z,14.90
2017-12-21T17:42:27.310Z,22.00
2017-12-21T17:44:55.373Z,14.55
2017-12-21T17:47:23.439Z,17.98
2017-12-21T17:49:51.501Z,16.30
2017-12-21T17:52:19.585Z,15.02
2017-12-21T17:54:48.409Z,20.65
2017-12-21T17:57:17.985Z,15.95
2017-12-21T17:59:46.045Z,16.08
2017-12-21T18:09:39.361Z,18.90
2017-12-21T18:12:08.656Z,13.45
2017-12-21T18:14:36.692Z,16.05
2017-12-21T18:17:04.785Z,17.77
2017-12-21T18:19:32.850Z,18.75
2017-12-21T18:22:00.902Z,20.12
2017-12-21T18:24:28.959Z,18.37
2017-12-21T18:26:58.541Z,25.37
2017-12-21T18:29:27.785Z,25.92
2017-12-21T18:31:55.810Z,20.52
2017-12-21T19:28:43.621Z,26.50
2017-12-21T19:31:12.069Z,25.55
2017-12-21T19:33:40.905Z,29.02
2017-12-21T19:36:09.358Z,26.52
2017-12-21T19:38:38.564Z,25.00
2017-12-21T19:41:06.617Z,28.95
2017-12-21T19:43:35.813Z,27.35
2017-12-21T19:46:03.884Z,28.40
2017-12-21T19:48:31.964Z,22.67
2017-12-21T19:51:01.508Z,30.98
2017-12-21T19:53:29.981Z,27.15
2017-12-21T19:55:59.385Z,25.70
2017-12-21T19:58:28.129Z,25.67
2017-12-21T20:00:57.007Z,21.83
2017-12-21T20:03:25.428Z,22.40
2017-12-21T20:05:54.273Z,23.45
2017-12-21T20:08:23.117Z,20.55
2017-12-21T20:10:51.574Z,21.52
2017-12-21T20:13:19.661Z,19.52
2017-12-21T20:15:47.773Z,19.80
2017-12-21T20:18:15.948Z,23.87
2017-12-21T20:20:44.412Z,19.85
2017-12-21T20:23:12.472Z,21.65
2017-12-21T20:25:40.549Z,18.00
2017-12-21T20:28:08.633Z,20.17
2017-12-21T21:22:28.621Z,24.08
2017-12-21T21:24:58.204Z,19.98
2017-12-21T21:27:27.033Z,20.80
2017-12-21T21:47:13.560Z,24.95
2017-12-21T21:49:41.541Z,25.33
2017-12-21T21:52:09.609Z,24.37
2017-12-21T21:54:38.366Z,22.83
2017-12-21T21:57:06.938Z,26.12
2017-12-21T21:59:35.397Z,25.77
2017-12-21T22:02:04.212Z,25.62
2017-12-21T22:04:32.485Z,25.17
2017-12-21T22:07:02.119Z,23.87
2017-12-21T22:09:30.683Z,24.50
2017-12-21T22:11:58.883Z,20.55
2017-12-21T22:14:27.666Z,23.27
2017-12-21T22:16:55.721Z,25.35
2017-12-21T22:19:23.807Z,21.27
2017-12-21T22:21:51.862Z,21.75
2017-12-21T22:24:19.920Z,20.12
2017-12-21T22:26:47.989Z,22.30
2017-12-21T22:29:16.041Z,21.60
2017-12-21T22:31:44.514Z,20.35
2017-12-21T22:34:13.342Z,21.00
2017-12-21T22:36:41.438Z,20.58
2017-12-21T22:39:09.510Z,20.12
2017-12-21T22:41:38.328Z,16.55
2017-12-21T22:44:06.405Z,19.10
2017-12-21T22:46:34.488Z,16.95
2017-12-21T22:49:03.321Z,17.35
2017-12-21T22:51:31.369Z,16.58
2017-12-21T22:53:59.441Z,17.05
2017-12-21T22:56:27.949Z,15.13
2017-12-21T22:58:56.025Z,16.35
2017-12-21T23:01:24.107Z,15.98
2017-12-21T23:18:40.013Z,13.48
2017-12-21T23:21:08.021Z,14.20
2017-12-21T23:23:36.840Z,13.18
2017-12-21T23:26:06.050Z,12.48
2017-12-21T23:28:34.113Z,14.00
2017-12-21T23:31:02.168Z,12.93
2017-12-21T23:33:30.241Z,11.65
2017-12-21T23:35:58.293Z,12.88
2017-12-21T23:38:27.133Z,11.95
2017-12-21T23:40:55.181Z,10.50
2017-12-21T23:43:23.605Z,10.30
2017-12-21T23:45:51.669Z,9.75
2017-12-21T23:48:19.717Z,10.23
2017-12-21T23:50:47.764Z,10.20
2017-12-21T23:53:15.825Z,9.52
2017-12-21T23:55:44.657Z,11.98
2017-12-21T23:58:12.709Z,10.80
